EGCCLTBS

Guest
Details From EGCC - Manchester
To LTBS - Dalaman
Flight Number -
Tags Generated
Created
Modified
Stats Distance 1,634 nm / 3,026 km
Max Altitude 0 ft / 0 m
Waypoints 9
Social Downloads 5
Likes 0
Share VATSIM

Download

Looking for another format? Having issues loading an existing format? Contact us
Advertisement - Login to hide

Notes

Generated

Route

EGCC BRESK MAW06 OBEDI BLK SKJ81 NILVA DAL32 LTBS

ID Type Via Altitude Latitude Longitude Leg Dist Tot Dist Heading (true) Name
O EGCC APT - 0 ft / 0 m 53.33197˚ -2.31066˚ - 0 nm - -
BRESK FIX - 0 ft / 0 m 51.41667˚ 3.54833˚ 243 nm 243 nm 116° / 120° -
MAW06 FIX - 0 ft / 0 m 49.46660˚ 8.67067˚ 228 nm 471 nm 119° / 123° -
OBEDI FIX - 0 ft / 0 m 47.32790˚ 13.32975˚ 225 nm 697 nm 123° / 126° -
BLK NDB - 0 ft / 0 m 45.09526˚ 17.25794˚ 211 nm 908 nm 128° / 131° BANJA LUKA NDB
SKJ81 FIX - 0 ft / 0 m 42.21713˚ 21.76873˚ 261 nm 1170 nm 130° / 133° -
NILVA FIX - 0 ft / 0 m 39.32389˚ 25.68278˚ 248 nm 1418 nm 133° / 136° -
DAL32 FIX - 0 ft / 0 m 36.82597˚ 28.62903˚ 204 nm 1623 nm 136° / 138° -
O LTBS APT - 0 ft / 0 m 36.70016˚ 28.78809˚ 10 nm 1634 nm 135° / 135° -

Altitude Profile

Advertisement - Login to hide

Weather


0- 5 10 15 20 25 30 35+ Temperature / ° C

Clouds and Precipitation
Forecast for 2018-06-24 06:00 UTC. Updated 4 hours ago

Ground ~20,000 ft ~40,000 ft Winds

EGCC

Details ICAO EGCC (MAN)
Name Manchester Intl
Region United Kingdom
Timezone Europe/London (UTC+1.0)
Stats Elevation 257 ft / 78 m (AMSL)
Location 53.347141° -2.283954°
Runways 2
Magnetic Variation 1.379° W

METAR

EGCC 240650Z AUTO VRB01KT 9999 NCD 13/09 Q1027 NOSIG

Decode

TAF

TAF EGCC 240502Z 2406/2512 31005KT CAVOK PROB30 2406/2407 6000 PROB30 2502/2507 6000

Decode

Departure Runways

ID Width Length Bearing (true) Bearing (mag) Surface Threshold Offset Overrun Length
05L 151 ft / 46 m 9,981 ft / 3,042 m 50.99° 52.37° Asphalt 1,401 ft / 427 m 0 ft / 0 m
05R 151 ft / 46 m 9,952 ft / 3,033 m 50.97° 52.35° Asphalt 0 ft / 0 m 26 ft / 8 m
23L 151 ft / 46 m 9,952 ft / 3,033 m 231.00° 232.38° Asphalt 561 ft / 171 m 0 ft / 0 m
23R 151 ft / 46 m 9,981 ft / 3,042 m 231.02° 232.40° Asphalt 597 ft / 182 m 0 ft / 0 m

LTBS

Details ICAO LTBS (DLM)
Name DALAMAN
Region Turkey
Timezone Europe/Istanbul (UTC+3.0)
Stats Elevation 20 ft / 6 m (AMSL)
Location 36.713189° 28.792513°
Runways 1
Magnetic Variation 4.929° E

METAR

LTBS 240650Z 20008KT CAVOK 28/16 Q1009 NOSIG RMK RWY19 VRB03KT

Decode

TAF

Not found

Destination Runways

ID Width Length Bearing (true) Bearing (mag) Surface Threshold Offset Overrun Length
01 148 ft / 45 m 9,851 ft / 3,003 m 15.24° 10.31° Concrete 0 ft / 0 m 197 ft / 60 m
19 148 ft / 45 m 9,851 ft / 3,003 m 195.25° 190.32° Concrete 0 ft / 0 m 197 ft / 60 m

Popular Alternatives